createdAt,value
2018-08-09T00:00:24.992Z,0
2018-08-09T00:01:05.540Z,0
2018-08-09T00:01:46.105Z,0
2018-08-09T00:02:26.732Z,0
2018-08-09T00:03:07.305Z,0
2018-08-09T00:03:47.850Z,0
2018-08-09T00:04:28.411Z,0
2018-08-09T00:05:09.012Z,0
2018-08-09T00:05:49.582Z,0
2018-08-09T00:06:30.178Z,0
2018-08-09T00:07:10.739Z,0
2018-08-09T00:07:51.306Z,0
2018-08-09T00:08:31.872Z,0
2018-08-09T00:09:12.460Z,0
2018-08-09T00:09:53.008Z,0
2018-08-09T00:10:33.579Z,0
2018-08-09T00:11:14.143Z,0
2018-08-09T00:11:54.719Z,0
2018-08-09T00:12:35.275Z,0
2018-08-09T00:13:15.838Z,0
2018-08-09T00:13:56.404Z,0
2018-08-09T00:14:36.979Z,0
2018-08-09T00:15:17.556Z,0
2018-08-09T00:15:58.150Z,0
2018-08-09T00:16:38.724Z,0
2018-08-09T00:17:19.343Z,0
2018-08-09T00:17:59.967Z,0
2018-08-09T00:18:40.553Z,0
2018-08-09T00:19:21.117Z,0
2018-08-09T00:20:01.665Z,0
2018-08-09T00:20:42.246Z,0
2018-08-09T00:21:22.819Z,0
2018-08-09T00:22:03.393Z,0
2018-08-09T00:22:43.960Z,0
2018-08-09T00:23:24.540Z,0
2018-08-09T00:24:05.112Z,0
2018-08-09T00:24:45.675Z,0
2018-08-09T00:25:26.257Z,0
2018-08-09T00:26:06.811Z,0
2018-08-09T00:26:47.383Z,0
2018-08-09T00:27:27.954Z,0
2018-08-09T00:28:08.532Z,0
2018-08-09T00:28:49.102Z,0
2018-08-09T00:29:29.654Z,0
2018-08-09T00:30:10.206Z,0
2018-08-09T00:30:50.783Z,0
2018-08-09T00:31:31.346Z,0
2018-08-09T00:32:11.913Z,0
2018-08-09T00:32:52.478Z,0
2018-08-09T00:33:33.057Z,0
2018-08-09T00:34:13.627Z,0
2018-08-09T00:34:54.192Z,0
2018-08-09T00:35:34.750Z,0
2018-08-09T00:36:15.320Z,0
2018-08-09T00:36:55.878Z,0
2018-08-09T00:37:36.444Z,0
2018-08-09T00:38:17.005Z,0
2018-08-09T00:38:57.562Z,0
2018-08-09T00:39:38.122Z,0
2018-08-09T00:40:18.695Z,0
2018-08-09T00:40:59.275Z,0
2018-08-09T00:41:39.832Z,0
2018-08-09T00:42:20.421Z,0
2018-08-09T00:43:00.994Z,0
2018-08-09T00:43:41.560Z,0
2018-08-09T00:44:22.111Z,0
2018-08-09T00:45:02.686Z,0
2018-08-09T00:45:43.266Z,0
2018-08-09T00:46:23.845Z,0
2018-08-09T00:47:04.419Z,0
2018-08-09T00:47:44.995Z,0
2018-08-09T00:48:25.554Z,0
2018-08-09T00:49:06.122Z,0
2018-08-09T00:49:46.697Z,0
2018-08-09T00:50:27.255Z,0
2018-08-09T00:51:07.819Z,0
2018-08-09T00:51:48.383Z,0
2018-08-09T00:52:28.952Z,0
2018-08-09T00:53:09.520Z,0
2018-08-09T00:53:50.088Z,0
2018-08-09T00:54:30.639Z,0
2018-08-09T00:55:11.216Z,0
2018-08-09T00:55:51.782Z,0
2018-08-09T00:56:32.364Z,0
2018-08-09T00:57:12.933Z,0
2018-08-09T00:57:53.547Z,0
2018-08-09T00:58:34.102Z,0
2018-08-09T00:59:14.669Z,0
2018-08-09T00:59:55.235Z,0
2018-08-09T01:00:35.805Z,0
2018-08-09T01:01:16.365Z,0
2018-08-09T01:01:56.940Z,0
2018-08-09T01:02:37.499Z,0
2018-08-09T01:03:18.057Z,0
2018-08-09T01:03:58.623Z,0
2018-08-09T01:04:39.197Z,0
2018-08-09T01:05:19.764Z,0
2018-08-09T01:06:00.315Z,0
2018-08-09T01:06:40.899Z,0
2018-08-09T01:07:21.469Z,0
2018-08-09T01:08:02.050Z,0
2018-08-09T01:08:42.608Z,0
2018-08-09T01:09:23.186Z,0
2018-08-09T01:10:03.749Z,0
2018-08-09T01:10:44.376Z,0
2018-08-09T01:11:24.949Z,0
2018-08-09T01:12:05.512Z,0
2018-08-09T01:12:46.121Z,0
2018-08-09T01:13:26.692Z,0
2018-08-09T01:14:07.271Z,0
2018-08-09T01:14:47.835Z,0
2018-08-09T01:15:28.407Z,0
2018-08-09T01:16:08.978Z,0
2018-08-09T01:16:49.577Z,0
2018-08-09T01:17:30.151Z,0
2018-08-09T01:18:10.768Z,0
2018-08-09T01:18:51.340Z,0
2018-08-09T01:19:31.946Z,0
2018-08-09T01:20:12.605Z,0
2018-08-09T01:20:53.171Z,0
2018-08-09T01:21:33.769Z,0
2018-08-09T01:22:14.344Z,0
2018-08-09T01:22:54.917Z,0
2018-08-09T01:23:35.498Z,0
2018-08-09T01:24:16.054Z,0
2018-08-09T01:24:56.628Z,0
2018-08-09T01:25:37.231Z,0
2018-08-09T01:26:17.809Z,0
2018-08-09T01:26:58.377Z,0
2018-08-09T01:27:38.933Z,0
2018-08-09T01:28:19.522Z,0
2018-08-09T01:29:00.094Z,0
2018-08-09T01:29:40.651Z,0
2018-08-09T01:30:21.212Z,0
2018-08-09T01:31:01.781Z,0
2018-08-09T01:31:42.368Z,0
2018-08-09T01:32:22.947Z,0
2018-08-09T01:33:03.540Z,0
2018-08-09T01:33:44.126Z,0
2018-08-09T01:34:24.686Z,0
2018-08-09T01:35:05.245Z,0
2018-08-09T01:35:45.824Z,0
2018-08-09T01:36:26.393Z,0
2018-08-09T01:37:06.953Z,0
2018-08-09T01:37:47.517Z,0
2018-08-09T01:38:28.082Z,0
2018-08-09T01:39:08.674Z,0
2018-08-09T01:39:49.248Z,0
2018-08-09T01:40:29.828Z,0
2018-08-09T01:41:10.408Z,0
2018-08-09T01:41:50.967Z,0
2018-08-09T01:42:31.549Z,0
2018-08-09T01:43:12.113Z,0
2018-08-09T01:43:52.689Z,0
2018-08-09T01:44:33.257Z,0
2018-08-09T01:45:13.818Z,0
2018-08-09T01:45:54.390Z,0
2018-08-09T01:46:34.962Z,0
2018-08-09T01:47:15.526Z,0
2018-08-09T01:47:56.094Z,0
2018-08-09T01:48:36.675Z,0
2018-08-09T01:49:17.246Z,0
2018-08-09T01:49:57.805Z,0
2018-08-09T01:50:38.401Z,0
2018-08-09T01:51:18.972Z,0
2018-08-09T01:51:59.542Z,0
2018-08-09T01:52:40.125Z,0
2018-08-09T01:53:20.693Z,0
2018-08-09T01:54:01.247Z,0
2018-08-09T01:54:41.817Z,0
2018-08-09T01:55:22.379Z,0
2018-08-09T01:56:02.927Z,0
2018-08-09T01:56:43.496Z,0
2018-08-09T01:57:24.066Z,0
2018-08-09T01:58:04.622Z,0
2018-08-09T01:58:45.197Z,0
2018-08-09T01:59:25.831Z,0
2018-08-09T02:00:06.410Z,0
2018-08-09T02:00:46.975Z,0
2018-08-09T02:01:27.578Z,0
2018-08-09T02:02:08.136Z,0
2018-08-09T02:02:48.748Z,0
2018-08-09T02:03:29.281Z,0
2018-08-09T02:04:09.828Z,0
2018-08-09T02:04:50.503Z,0
2018-08-09T02:05:30.959Z,0
2018-08-09T02:06:11.532Z,0
2018-08-09T02:06:52.102Z,0
2018-08-09T02:07:32.671Z,0
2018-08-09T02:08:13.245Z,0
2018-08-09T02:08:53.801Z,0
2018-08-09T02:09:34.379Z,0
2018-08-09T02:10:14.936Z,0
2018-08-09T02:10:55.492Z,0
2018-08-09T02:11:36.061Z,0
2018-08-09T02:12:16.623Z,0
2018-08-09T02:12:57.207Z,0
2018-08-09T02:13:37.760Z,0
2018-08-09T02:14:18.371Z,0
2018-08-09T02:14:58.949Z,0
2018-08-09T02:15:39.518Z,0
2018-08-09T02:16:20.089Z,0
2018-08-09T02:17:00.651Z,0
2018-08-09T02:17:41.214Z,0
2018-08-09T02:18:21.800Z,0
2018-08-09T02:19:02.374Z,0
2018-08-09T02:19:42.944Z,0
2018-08-09T02:20:23.517Z,0
2018-08-09T02:21:04.084Z,0
2018-08-09T02:21:44.649Z,0
2018-08-09T02:22:25.208Z,0
2018-08-09T02:23:05.774Z,0
2018-08-09T02:23:46.356Z,0
2018-08-09T02:24:26.898Z,0
2018-08-09T02:25:07.454Z,0
2018-08-09T02:25:48.022Z,0
2018-08-09T02:26:28.579Z,0
2018-08-09T02:27:09.142Z,0
2018-08-09T02:27:49.721Z,0
2018-08-09T02:28:30.286Z,0
2018-08-09T02:29:10.853Z,0
2018-08-09T02:29:51.427Z,0
2018-08-09T02:30:31.998Z,0
2018-08-09T02:31:12.568Z,0
2018-08-09T02:31:53.136Z,0
2018-08-09T02:32:33.746Z,0
2018-08-09T02:33:14.309Z,0
2018-08-09T02:33:54.872Z,0
2018-08-09T02:34:35.420Z,0
2018-08-09T02:35:15.994Z,0
2018-08-09T02:35:56.587Z,0
2018-08-09T02:36:37.159Z,0
2018-08-09T02:37:17.721Z,0
2018-08-09T02:37:58.296Z,0
2018-08-09T02:38:38.842Z,0
2018-08-09T02:39:19.407Z,0
2018-08-09T02:39:59.977Z,0
2018-08-09T02:40:40.559Z,0
2018-08-09T02:41:21.124Z,0
2018-08-09T02:42:01.696Z,0
2018-08-09T02:42:42.270Z,0
2018-08-09T02:43:22.861Z,0
2018-08-09T02:44:03.425Z,0
2018-08-09T02:44:43.996Z,0
2018-08-09T02:45:24.635Z,0
2018-08-09T02:46:05.252Z,0
2018-08-09T02:46:45.826Z,0
2018-08-09T02:47:26.401Z,0
2018-08-09T02:48:07.004Z,0
2018-08-09T02:48:47.617Z,0
2018-08-09T02:49:28.187Z,0
2018-08-09T02:50:08.763Z,0
2018-08-09T02:50:49.335Z,0
2018-08-09T02:51:29.902Z,0
2018-08-09T02:52:10.461Z,0
2018-08-09T02:52:51.066Z,0
2018-08-09T02:53:31.663Z,0
2018-08-09T02:54:12.245Z,0
2018-08-09T02:54:52.820Z,0
2018-08-09T02:55:33.421Z,0
2018-08-09T02:56:13.974Z,0
2018-08-09T02:56:54.545Z,0
2018-08-09T02:57:35.133Z,0
2018-08-09T02:58:15.679Z,0
2018-08-09T02:58:56.268Z,0
2018-08-09T02:59:36.836Z,0
2018-08-09T03:00:17.388Z,0
2018-08-09T03:00:57.969Z,0
2018-08-09T03:01:38.532Z,0
2018-08-09T03:02:19.091Z,0
2018-08-09T03:02:59.645Z,0
2018-08-09T03:03:40.204Z,0
2018-08-09T03:04:20.773Z,0
2018-08-09T03:05:01.352Z,0
2018-08-09T03:05:41.909Z,0
2018-08-09T03:06:22.471Z,0
2018-08-09T03:07:03.033Z,0
2018-08-09T03:07:43.601Z,0
2018-08-09T03:08:24.212Z,0
2018-08-09T03:09:04.769Z,0
2018-08-09T03:09:45.323Z,0
2018-08-09T03:10:25.890Z,0
2018-08-09T03:11:06.460Z,0
2018-08-09T03:11:47.031Z,0
2018-08-09T03:12:27.615Z,0
2018-08-09T03:13:08.207Z,0
2018-08-09T03:13:48.759Z,0
2018-08-09T03:14:29.322Z,0
2018-08-09T03:15:09.886Z,0
2018-08-09T03:15:50.433Z,0
2018-08-09T03:16:31.008Z,0
2018-08-09T03:17:11.588Z,0
2018-08-09T03:17:52.145Z,0
2018-08-09T03:18:32.712Z,0
2018-08-09T03:19:13.321Z,0
2018-08-09T03:19:53.897Z,0
2018-08-09T03:20:34.468Z,0
2018-08-09T03:21:15.026Z,0
2018-08-09T03:21:55.592Z,0
2018-08-09T03:22:36.166Z,0
2018-08-09T03:23:16.725Z,0
2018-08-09T03:23:57.321Z,0
2018-08-09T03:24:37.901Z,0
2018-08-09T03:25:18.474Z,0
2018-08-09T03:25:59.043Z,0
2018-08-09T03:26:39.604Z,0
2018-08-09T03:27:20.164Z,0
2018-08-09T03:28:00.727Z,0
2018-08-09T03:28:41.294Z,0
2018-08-09T03:29:21.856Z,0
2018-08-09T03:30:02.444Z,0
2018-08-09T03:30:43.013Z,0
2018-08-09T03:31:23.592Z,0
2018-08-09T03:32:04.170Z,0
2018-08-09T03:32:44.751Z,0
2018-08-09T03:33:25.316Z,0
2018-08-09T03:34:05.887Z,0
2018-08-09T03:34:46.439Z,0
2018-08-09T03:35:27.021Z,0
2018-08-09T03:36:07.566Z,0
2018-08-09T03:36:48.131Z,0
2018-08-09T03:37:28.705Z,0
2018-08-09T03:38:09.300Z,0
2018-08-09T03:38:49.869Z,0
2018-08-09T03:39:30.449Z,0
2018-08-09T03:40:11.015Z,0
2018-08-09T03:40:51.598Z,0
2018-08-09T03:41:32.138Z,0
2018-08-09T03:42:12.729Z,0
2018-08-09T03:42:53.415Z,0
2018-08-09T03:43:33.983Z,0
2018-08-09T03:44:14.560Z,0
2018-08-09T03:44:55.133Z,0
2018-08-09T03:45:35.706Z,0
2018-08-09T03:46:16.290Z,0
2018-08-09T03:46:56.855Z,0
2018-08-09T03:47:37.422Z,5
2018-08-09T03:48:17.969Z,5
2018-08-09T03:48:58.538Z,5
2018-08-09T03:49:39.109Z,5
2018-08-09T03:50:19.676Z,5
2018-08-09T03:51:00.243Z,5
2018-08-09T03:51:40.795Z,5
2018-08-09T03:52:21.361Z,5
2018-08-09T03:53:01.923Z,5
2018-08-09T03:53:42.487Z,5
2018-08-09T03:54:23.038Z,5
2018-08-09T03:55:03.658Z,5
2018-08-09T03:55:44.226Z,5
2018-08-09T03:56:24.794Z,10
2018-08-09T03:57:05.356Z,10
2018-08-09T03:57:45.923Z,10
2018-08-09T03:58:26.480Z,10
2018-08-09T03:59:07.048Z,10
2018-08-09T03:59:47.743Z,10
2018-08-09T04:00:28.186Z,10
2018-08-09T04:01:08.792Z,10
2018-08-09T04:01:49.371Z,10
2018-08-09T04:02:29.937Z,10
2018-08-09T04:03:10.562Z,10
2018-08-09T04:03:51.125Z,10
2018-08-09T04:04:31.712Z,10
2018-08-09T04:05:12.277Z,10
2018-08-09T04:05:52.848Z,15
2018-08-09T04:06:33.420Z,15
2018-08-09T04:07:13.981Z,15
2018-08-09T04:07:54.548Z,15
2018-08-09T04:08:35.122Z,15
2018-08-09T04:09:15.690Z,15
2018-08-09T04:09:56.263Z,15
2018-08-09T04:10:36.821Z,15
2018-08-09T04:11:17.386Z,15
2018-08-09T04:11:58.059Z,15
2018-08-09T04:12:38.566Z,20
2018-08-09T04:13:19.125Z,20
2018-08-09T04:13:59.689Z,20
2018-08-09T04:14:40.253Z,20
2018-08-09T04:15:20.842Z,20
2018-08-09T04:16:01.396Z,20
2018-08-09T04:16:41.981Z,20
2018-08-09T04:17:22.540Z,20
2018-08-09T04:18:03.109Z,20
2018-08-09T04:18:43.693Z,25
2018-08-09T04:19:24.287Z,25
2018-08-09T04:20:04.848Z,25
2018-08-09T04:20:45.409Z,25
2018-08-09T04:21:25.968Z,25
2018-08-09T04:22:06.529Z,25
2018-08-09T04:22:47.098Z,25
2018-08-09T04:23:27.677Z,30
2018-08-09T04:24:08.252Z,30
2018-08-09T04:24:48.829Z,30
2018-08-09T04:25:29.395Z,30
2018-08-09T04:26:09.972Z,30
2018-08-09T04:26:50.565Z,30
2018-08-09T04:27:31.362Z,30
2018-08-09T04:28:11.944Z,35
2018-08-09T04:28:52.506Z,35
2018-08-09T04:29:33.063Z,35
2018-08-09T04:30:13.632Z,35
2018-08-09T04:30:54.194Z,35
2018-08-09T04:31:34.755Z,35
2018-08-09T04:32:15.318Z,40
2018-08-09T04:32:55.894Z,40
2018-08-09T04:33:36.467Z,40
2018-08-09T04:34:17.071Z,40
2018-08-09T04:34:57.680Z,40
2018-08-09T04:35:38.252Z,40
2018-08-09T04:36:18.820Z,40
2018-08-09T04:36:59.417Z,45
2018-08-09T04:37:40.057Z,45
2018-08-09T04:38:20.625Z,45
2018-08-09T04:39:01.185Z,45
2018-08-09T04:39:41.748Z,45
2018-08-09T04:40:22.316Z,45
2018-08-09T04:41:02.871Z,50
2018-08-09T04:41:43.448Z,50
2018-08-09T04:42:24.016Z,50
2018-08-09T04:43:04.587Z,50
2018-08-09T04:43:45.157Z,55
2018-08-09T04:44:25.713Z,55
2018-08-09T04:45:06.293Z,55
2018-08-09T04:45:46.852Z,55
2018-08-09T04:46:27.699Z,55
2018-08-09T04:47:08.298Z,60
2018-08-09T04:47:48.864Z,60
2018-08-09T04:48:29.426Z,60
2018-08-09T04:49:10.002Z,60
2018-08-09T04:49:50.551Z,60
2018-08-09T04:50:31.120Z,60
2018-08-09T04:51:11.710Z,65
2018-08-09T04:51:52.275Z,65
2018-08-09T04:52:32.843Z,65
2018-08-09T04:53:13.403Z,65
2018-08-09T04:53:53.971Z,65
2018-08-09T04:54:34.538Z,70
2018-08-09T04:55:15.121Z,70
2018-08-09T04:55:55.701Z,70
2018-08-09T04:56:36.266Z,70
2018-08-09T04:57:16.888Z,70
2018-08-09T04:57:57.504Z,70
2018-08-09T04:58:38.017Z,70
2018-08-09T04:59:18.608Z,70
2018-08-09T04:59:59.165Z,70
2018-08-09T05:00:39.749Z,70
2018-08-09T05:01:20.326Z,75
2018-08-09T05:02:00.921Z,75
2018-08-09T05:02:41.491Z,75
2018-08-09T05:03:22.061Z,75
2018-08-09T05:04:02.763Z,80
2018-08-09T05:04:43.232Z,80
2018-08-09T05:05:23.836Z,80
2018-08-09T05:06:04.401Z,80
2018-08-09T05:06:44.961Z,80
2018-08-09T05:07:25.543Z,85
2018-08-09T05:08:06.170Z,85
2018-08-09T05:08:46.759Z,85
2018-08-09T05:09:27.341Z,85
2018-08-09T05:10:07.906Z,90
2018-08-09T05:10:48.476Z,90
2018-08-09T05:11:29.038Z,90
2018-08-09T05:12:09.592Z,90
2018-08-09T05:12:50.163Z,95
2018-08-09T05:13:30.730Z,95
2018-08-09T05:14:11.288Z,95
2018-08-09T05:14:51.880Z,95
2018-08-09T05:15:32.428Z,100
2018-08-09T05:16:12.993Z,100
2018-08-09T05:16:53.556Z,100
2018-08-09T05:17:34.131Z,105
2018-08-09T05:18:14.687Z,105
2018-08-09T05:18:55.250Z,105
2018-08-09T05:19:35.822Z,105
2018-08-09T05:20:16.400Z,110
2018-08-09T05:20:56.968Z,110
2018-08-09T05:21:37.563Z,110
2018-08-09T05:22:18.129Z,110
2018-08-09T05:22:58.695Z,115
2018-08-09T05:23:39.520Z,115
2018-08-09T05:24:20.088Z,115
2018-08-09T05:25:00.658Z,115
2018-08-09T05:25:41.203Z,120
2018-08-09T05:26:21.844Z,120
2018-08-09T05:27:02.342Z,120
2018-08-09T05:27:42.907Z,125
2018-08-09T05:28:23.471Z,125
2018-08-09T05:29:04.024Z,130
2018-08-09T05:29:44.642Z,130
2018-08-09T05:30:25.214Z,130
2018-08-09T05:31:05.773Z,135
2018-08-09T05:31:46.333Z,135
2018-08-09T05:32:26.890Z,140
2018-08-09T05:33:07.461Z,140
2018-08-09T05:33:48.046Z,140
2018-08-09T05:34:28.627Z,145
2018-08-09T05:35:09.195Z,145
2018-08-09T05:35:49.766Z,150
2018-08-09T05:36:30.328Z,150
2018-08-09T05:37:10.898Z,150
2018-08-09T05:37:51.463Z,150
2018-08-09T05:38:32.062Z,150
2018-08-09T05:39:12.639Z,155
2018-08-09T05:39:53.204Z,155
2018-08-09T05:40:33.770Z,165
2018-08-09T05:41:14.352Z,160
2018-08-09T05:41:54.890Z,165
2018-08-09T05:42:35.464Z,165
2018-08-09T05:43:16.017Z,170
2018-08-09T05:43:56.637Z,170
2018-08-09T05:44:37.201Z,180
2018-08-09T05:45:17.832Z,230
2018-08-09T05:45:58.348Z,380
2018-08-09T05:46:38.931Z,555
2018-08-09T05:47:19.496Z,720
2018-08-09T05:48:00.072Z,815
2018-08-09T05:48:40.632Z,845
2018-08-09T05:49:21.209Z,885
2018-08-09T05:50:01.774Z,885
2018-08-09T05:50:42.389Z,895
2018-08-09T05:51:22.980Z,920
2018-08-09T05:52:03.551Z,930
2018-08-09T05:52:44.255Z,880
2018-08-09T05:53:24.770Z,910
2018-08-09T05:54:05.381Z,970
2018-08-09T05:54:45.940Z,1010
2018-08-09T05:55:26.566Z,985
2018-08-09T05:56:07.141Z,960
2018-08-09T05:56:47.717Z,985
2018-08-09T05:57:28.300Z,1000
2018-08-09T05:58:08.914Z,995
2018-08-09T05:58:49.509Z,1020
2018-08-09T05:59:30.082Z,1050
2018-08-09T06:00:10.658Z,1050
2018-08-09T06:00:51.233Z,1050
2018-08-09T06:01:31.824Z,1020
2018-08-09T06:02:12.408Z,1040
2018-08-09T06:02:52.979Z,1045
2018-08-09T06:03:33.593Z,1055
2018-08-09T06:04:14.180Z,1055
2018-08-09T06:04:54.736Z,1060
2018-08-09T06:05:35.354Z,1080
2018-08-09T06:06:15.888Z,1065
2018-08-09T06:06:56.470Z,1080
2018-08-09T06:07:37.040Z,1095
2018-08-09T06:08:17.599Z,1130
2018-08-09T06:08:58.196Z,1130
2018-08-09T06:09:38.763Z,1125
2018-08-09T06:10:19.335Z,1145
2018-08-09T06:10:59.903Z,1170
2018-08-09T06:11:40.474Z,1160
2018-08-09T06:12:21.046Z,1135
2018-08-09T06:13:01.623Z,1175
2018-08-09T06:13:42.200Z,1185
2018-08-09T06:14:22.781Z,1145
2018-08-09T06:15:03.344Z,1145
2018-08-09T06:15:43.910Z,1190
2018-08-09T06:16:24.478Z,1215
2018-08-09T06:17:05.053Z,1205
2018-08-09T06:17:45.630Z,1225
2018-08-09T06:18:26.202Z,1205
2018-08-09T06:19:06.779Z,1155
2018-08-09T06:19:47.357Z,1070
2018-08-09T06:20:27.921Z,1120
2018-08-09T06:21:08.498Z,1210
2018-08-09T06:21:49.079Z,1270
2018-08-09T06:22:29.649Z,1300
2018-08-09T06:23:10.216Z,1315
2018-08-09T06:23:50.773Z,1330
2018-08-09T06:24:31.405Z,1335
2018-08-09T06:25:11.967Z,1325
2018-08-09T06:25:52.538Z,1305
2018-08-09T06:26:33.139Z,1305
2018-08-09T06:27:13.701Z,1295
2018-08-09T06:27:54.286Z,1315
2018-08-09T06:28:34.966Z,1370
2018-08-09T06:29:15.491Z,1350
2018-08-09T06:29:56.073Z,1295
2018-08-09T06:30:36.680Z,1265
2018-08-09T06:31:17.268Z,1290
2018-08-09T06:31:57.846Z,1310
2018-08-09T06:32:38.405Z,1295
2018-08-09T06:33:18.987Z,1260
2018-08-09T06:33:59.552Z,1300
2018-08-09T06:34:40.167Z,1360
2018-08-09T06:35:20.753Z,1395
2018-08-09T06:36:01.343Z,1395
2018-08-09T06:36:41.931Z,1395
2018-08-09T06:37:22.513Z,1370
2018-08-09T06:38:03.089Z,1330
2018-08-09T06:38:43.707Z,1315
2018-08-09T06:39:24.308Z,1350
2018-08-09T06:40:04.886Z,1410
2018-08-09T06:40:45.466Z,1420
2018-08-09T06:41:26.036Z,1395
2018-08-09T06:42:06.621Z,1360
2018-08-09T06:42:47.187Z,1350
2018-08-09T06:43:27.770Z,1395
2018-08-09T06:44:08.426Z,1415
2018-08-09T06:44:49.017Z,1410
2018-08-09T06:45:29.621Z,1360
2018-08-09T06:46:10.204Z,1350
2018-08-09T06:46:50.800Z,1335
2018-08-09T06:47:31.409Z,1320
2018-08-09T06:48:11.973Z,1335
2018-08-09T06:48:52.531Z,1400
2018-08-09T06:49:33.109Z,1410
2018-08-09T06:50:13.680Z,1360
2018-08-09T06:50:54.242Z,1335
2018-08-09T06:51:34.815Z,1320
2018-08-09T06:52:15.382Z,1370
2018-08-09T06:52:55.939Z,1350
2018-08-09T06:53:36.625Z,1360
2018-08-09T06:54:17.093Z,1380
2018-08-09T06:54:57.692Z,1410
2018-08-09T06:55:38.272Z,1410
2018-08-09T06:56:18.907Z,1445
2018-08-09T06:56:59.437Z,1385
2018-08-09T06:57:40.017Z,1375
2018-08-09T06:58:20.644Z,1370
2018-08-09T06:59:01.207Z,1425
2018-08-09T06:59:41.811Z,1480
2018-08-09T07:00:22.383Z,1450
2018-08-09T07:01:02.981Z,1460
2018-08-09T07:01:43.579Z,1440
2018-08-09T07:02:24.140Z,1400
2018-08-09T07:03:04.717Z,1375
2018-08-09T07:03:45.308Z,1430
2018-08-09T07:04:25.917Z,1520
2018-08-09T07:05:06.494Z,1480
2018-08-09T07:05:47.062Z,1465
2018-08-09T07:06:27.634Z,1480
2018-08-09T07:07:08.219Z,1515
2018-08-09T07:07:48.788Z,1510
2018-08-09T07:08:29.396Z,1420
2018-08-09T07:09:09.965Z,1415
2018-08-09T07:09:50.592Z,1475
2018-08-09T07:10:31.204Z,1505
2018-08-09T07:11:11.782Z,1525
2018-08-09T07:11:52.352Z,1530
2018-08-09T07:12:32.946Z,1505
2018-08-09T07:13:13.528Z,1480
2018-08-09T07:13:54.132Z,1480
2018-08-09T07:14:34.727Z,1480
2018-08-09T07:15:15.264Z,1445
2018-08-09T07:15:55.843Z,1380
2018-08-09T07:16:36.468Z,1360
2018-08-09T07:17:17.047Z,1380
2018-08-09T07:17:57.624Z,1375
2018-08-09T07:18:38.204Z,1360
2018-08-09T07:19:18.774Z,1355
2018-08-09T07:19:59.351Z,1340
2018-08-09T07:20:39.928Z,1235
2018-08-09T07:21:20.503Z,1140
2018-08-09T07:22:01.074Z,1120
2018-08-09T07:22:41.661Z,1100
2018-08-09T07:23:22.235Z,1065
2018-08-09T07:24:02.818Z,1010
2018-08-09T07:24:43.381Z,920
2018-08-09T07:25:24.016Z,860
2018-08-09T07:26:04.598Z,805
2018-08-09T07:26:45.211Z,760
2018-08-09T07:27:25.773Z,725
2018-08-09T07:28:06.348Z,675
2018-08-09T07:28:46.929Z,650
2018-08-09T07:29:27.528Z,630
2018-08-09T07:30:08.075Z,625
2018-08-09T07:30:48.645Z,615
2018-08-09T07:31:29.237Z,605
2018-08-09T07:32:09.822Z,595
2018-08-09T07:32:50.383Z,590
2018-08-09T07:33:30.960Z,590
2018-08-09T07:34:11.523Z,590
2018-08-09T07:34:52.089Z,590
2018-08-09T07:35:32.705Z,585
2018-08-09T07:36:13.273Z,575
2018-08-09T07:36:53.843Z,565
2018-08-09T07:37:34.480Z,560
2018-08-09T07:38:15.057Z,555
2018-08-09T07:38:55.644Z,560
2018-08-09T07:39:36.496Z,560
2018-08-09T07:40:16.843Z,560
2018-08-09T07:40:57.649Z,560
2018-08-09T07:41:38.428Z,555
2018-08-09T07:42:18.996Z,565
2018-08-09T07:42:59.996Z,575
2018-08-09T07:43:40.963Z,575
2018-08-09T07:44:21.558Z,570
2018-08-09T07:45:02.141Z,570
2018-08-09T07:45:42.706Z,565
2018-08-09T07:46:23.282Z,570
2018-08-09T07:47:03.871Z,575
2018-08-09T07:47:44.988Z,575
2018-08-09T07:48:25.873Z,575
2018-08-09T07:49:06.906Z,570
2018-08-09T07:49:47.728Z,570
2018-08-09T07:50:28.553Z,575
2018-08-09T07:51:09.318Z,570
2018-08-09T07:51:50.167Z,560
2018-08-09T07:52:30.890Z,555
2018-08-09T07:53:11.468Z,550
2018-08-09T07:53:52.036Z,550
2018-08-09T07:54:32.633Z,550
2018-08-09T07:55:13.240Z,540
2018-08-09T07:55:54.384Z,535
2018-08-09T07:56:34.963Z,535
2018-08-09T07:57:15.550Z,540
2018-08-09T07:57:56.109Z,550
2018-08-09T07:58:36.683Z,550
2018-08-09T07:59:17.296Z,540
2018-08-09T07:59:57.845Z,535
2018-08-09T08:00:38.434Z,535
2018-08-09T08:01:19.015Z,535
2018-08-09T08:01:59.618Z,525
2018-08-09T08:02:40.196Z,525
2018-08-09T08:03:20.773Z,520
2018-08-09T08:04:01.348Z,510
2018-08-09T08:04:41.981Z,510
2018-08-09T08:05:22.575Z,510
2018-08-09T08:06:03.189Z,505
2018-08-09T08:06:43.726Z,500
2018-08-09T08:07:24.323Z,485
2018-08-09T08:08:04.885Z,475
2018-08-09T08:08:45.456Z,455
2018-08-09T08:09:26.066Z,435
2018-08-09T08:10:06.664Z,425
2018-08-09T08:10:47.230Z,420
2018-08-09T08:11:27.811Z,415
2018-08-09T08:12:08.424Z,410
2018-08-09T08:12:48.990Z,405
2018-08-09T08:13:29.605Z,405
2018-08-09T08:14:10.188Z,400
2018-08-09T08:14:50.788Z,395
2018-08-09T08:15:31.349Z,390
2018-08-09T08:16:11.948Z,390
2018-08-09T08:16:52.518Z,385
2018-08-09T08:17:33.099Z,385
2018-08-09T08:18:13.677Z,385
2018-08-09T08:18:54.253Z,380
2018-08-09T08:19:34.852Z,380
2018-08-09T08:20:15.427Z,375
2018-08-09T08:20:56.001Z,370
2018-08-09T08:21:36.588Z,365
2018-08-09T08:22:17.152Z,365
2018-08-09T08:22:57.930Z,355
2018-08-09T08:23:38.671Z,350
2018-08-09T08:24:19.624Z,350
2018-08-09T08:25:00.216Z,350
2018-08-09T08:25:40.783Z,345
2018-08-09T08:26:21.364Z,340
2018-08-09T08:27:01.957Z,340
2018-08-09T08:27:42.532Z,335
2018-08-09T08:28:23.287Z,315
2018-08-09T08:29:03.986Z,330
2018-08-09T08:29:44.664Z,325
2018-08-09T08:30:25.359Z,325
2018-08-09T08:31:06.376Z,325
2018-08-09T08:31:47.353Z,325
2018-08-09T08:32:29.219Z,305
2018-08-09T08:33:09.978Z,290
2018-08-09T08:33:50.633Z,310
2018-08-09T08:34:31.275Z,275
2018-08-09T08:35:11.864Z,225
2018-08-09T08:35:52.561Z,220
2018-08-09T08:36:33.141Z,215
2018-08-09T08:37:13.942Z,235
2018-08-09T08:37:54.619Z,245
2018-08-09T08:38:35.184Z,245
2018-08-09T08:39:16.220Z,260
2018-08-09T08:39:56.905Z,240
2018-08-09T08:40:37.484Z,220
2018-08-09T08:41:18.162Z,195
2018-08-09T08:41:58.687Z,195
2018-08-09T08:42:39.263Z,190
2018-08-09T08:43:19.990Z,200
2018-08-09T08:44:00.720Z,210
2018-08-09T08:44:42.434Z,215
2018-08-09T08:45:23.210Z,215
2018-08-09T08:46:03.775Z,245
2018-08-09T08:46:44.361Z,255
2018-08-09T08:47:24.971Z,230
2018-08-09T08:48:05.523Z,230
2018-08-09T08:48:46.089Z,235
2018-08-09T08:49:26.747Z,225
2018-08-09T08:50:07.308Z,240
2018-08-09T08:50:47.870Z,245
2018-08-09T08:51:28.578Z,235
2018-08-09T08:52:09.646Z,250
2018-08-09T08:52:50.201Z,230
2018-08-09T08:53:30.864Z,255
2018-08-09T08:54:11.536Z,275
2018-08-09T08:54:52.259Z,245
2018-08-09T08:55:32.822Z,240
2018-08-09T08:56:13.445Z,225
2018-08-09T08:56:54.008Z,225
2018-08-09T08:57:34.580Z,225
2018-08-09T08:58:15.543Z,240
2018-08-09T08:58:56.250Z,230
2018-08-09T08:59:37.035Z,245
2018-08-09T09:00:17.603Z,240
2018-08-09T09:00:58.225Z,240
2018-08-09T09:01:38.739Z,240
2018-08-09T09:02:19.308Z,230
2018-08-09T09:02:59.880Z,225
2018-08-09T09:03:40.449Z,225
2018-08-09T09:04:21.089Z,230
2018-08-09T09:05:01.613Z,220
2018-08-09T09:05:42.203Z,215
2018-08-09T09:06:22.777Z,210
2018-08-09T09:07:03.385Z,215
2018-08-09T09:07:43.925Z,205
2018-08-09T09:08:24.510Z,205
2018-08-09T09:09:05.085Z,200
2018-08-09T09:09:45.670Z,195
2018-08-09T09:10:26.336Z,195
2018-08-09T09:11:06.923Z,195
2018-08-09T09:11:47.505Z,195
2018-08-09T09:12:28.071Z,195
2018-08-09T09:13:08.670Z,195
2018-08-09T09:13:49.334Z,195
2018-08-09T09:14:29.814Z,195
2018-08-09T09:15:10.387Z,190
2018-08-09T09:15:50.969Z,190
2018-08-09T09:16:31.553Z,190
2018-08-09T09:17:12.118Z,190
2018-08-09T09:17:52.685Z,185
2018-08-09T09:18:33.253Z,185
2018-08-09T09:19:13.854Z,185
2018-08-09T09:19:54.401Z,185
2018-08-09T09:20:34.986Z,180
2018-08-09T09:21:15.544Z,180
2018-08-09T09:21:56.124Z,180
2018-08-09T09:22:36.684Z,180
2018-08-09T09:23:17.253Z,180
2018-08-09T09:23:57.832Z,180
2018-08-09T09:24:38.413Z,180
2018-08-09T09:25:19.014Z,175
2018-08-09T09:25:59.577Z,175
2018-08-09T09:26:40.144Z,175
2018-08-09T09:27:20.834Z,170
2018-08-09T09:28:01.521Z,170
2018-08-09T09:28:42.250Z,170
2018-08-09T09:29:22.784Z,170
2018-08-09T09:30:03.391Z,170
2018-08-09T09:30:43.984Z,170
2018-08-09T09:31:24.540Z,165
2018-08-09T09:32:05.138Z,165
2018-08-09T09:32:45.729Z,165
2018-08-09T09:33:26.343Z,165
2018-08-09T09:34:07.005Z,165
2018-08-09T09:34:47.569Z,165